createdAt,value
2022-09-12T00:02:13.508Z,52.20
2022-09-12T00:04:47.350Z,52.20
2022-09-12T00:07:21.358Z,52.20
2022-09-12T00:09:56.329Z,52.30
2022-09-12T00:12:30.287Z,52.40
2022-09-12T00:15:04.339Z,52.40
2022-09-12T00:17:39.618Z,52.60
2022-09-12T00:20:13.668Z,52.50
2022-09-12T00:22:47.523Z,52.50
2022-09-12T00:25:22.439Z,52.50
2022-09-12T00:27:56.194Z,52.70
2022-09-12T00:30:29.778Z,52.70
2022-09-12T00:33:03.571Z,52.80
2022-09-12T00:35:42.112Z,52.80
2022-09-12T00:38:16.283Z,53.00
2022-09-12T00:40:51.527Z,52.90
2022-09-12T00:43:39.952Z,53.00
2022-09-12T00:46:23.817Z,53.10
2022-09-12T00:49:01.583Z,53.20
2022-09-12T00:51:37.646Z,53.00
2022-09-12T00:54:17.484Z,53.00
2022-09-12T00:56:56.553Z,53.00
2022-09-12T00:59:36.418Z,52.90
2022-09-12T01:02:10.616Z,52.90
2022-09-12T01:04:47.994Z,52.90
2022-09-12T01:07:24.128Z,52.90
2022-09-12T01:09:58.018Z,52.90
2022-09-12T01:12:33.335Z,52.90
2022-09-12T01:15:07.816Z,52.90
2022-09-12T01:17:52.328Z,52.90
2022-09-12T01:20:54.898Z,53.10
2022-09-12T01:24:03.839Z,53.10
2022-09-12T01:27:12.473Z,53.10
2022-09-12T01:30:25.412Z,53.10
2022-09-12T01:33:24.262Z,53.00
2022-09-12T01:36:12.909Z,52.90
2022-09-12T01:38:50.714Z,53.10
2022-09-12T01:41:30.544Z,53.20
2022-09-12T01:44:13.998Z,53.30
2022-09-12T01:46:54.233Z,53.30
2022-09-12T01:49:34.327Z,53.30
2022-09-12T01:52:13.642Z,53.30
2022-09-12T01:54:52.310Z,53.40
2022-09-12T01:57:33.102Z,53.40
2022-09-12T02:00:12.544Z,53.40
2022-09-12T02:02:55.275Z,53.50
2022-09-12T02:05:35.050Z,53.50
2022-09-12T02:08:12.418Z,53.40
2022-09-12T02:10:52.446Z,53.50
2022-09-12T02:13:30.553Z,53.50
2022-09-12T02:16:10.865Z,53.40
2022-09-12T02:18:48.243Z,53.60
2022-09-12T02:21:25.901Z,53.50
2022-09-12T02:24:03.772Z,53.50
2022-09-12T02:26:45.441Z,53.50
2022-09-12T02:29:19.344Z,53.50
2022-09-12T02:31:55.563Z,53.50
2022-09-12T02:34:41.293Z,53.50
2022-09-12T02:37:27.354Z,53.60
2022-09-12T02:40:02.256Z,53.60
2022-09-12T02:42:38.238Z,53.70
2022-09-12T02:45:13.160Z,53.50
2022-09-12T02:47:51.242Z,53.60
2022-09-12T02:50:25.347Z,53.60
2022-09-12T02:53:04.798Z,53.70
2022-09-12T02:55:40.904Z,53.70
2022-09-12T02:58:19.613Z,54.30
2022-09-12T03:00:58.433Z,53.80
2022-09-12T03:03:58.807Z,53.80
2022-09-12T03:06:38.581Z,53.70
2022-09-12T03:09:20.230Z,53.80
2022-09-12T03:12:11.916Z,53.80
2022-09-12T03:15:08.947Z,53.80
2022-09-12T03:17:57.821Z,53.90
2022-09-12T03:20:41.731Z,54.00
2022-09-12T03:23:25.576Z,54.00
2022-09-12T03:26:07.248Z,54.10
2022-09-12T03:28:42.161Z,54.10
2022-09-12T03:31:17.103Z,54.10
2022-09-12T03:33:50.910Z,54.10
2022-09-12T03:36:25.717Z,54.20
2022-09-12T03:38:59.501Z,54.20
2022-09-12T03:41:34.433Z,54.10
2022-09-12T03:44:08.225Z,54.10
2022-09-12T03:46:41.787Z,54.20
2022-09-12T03:49:15.844Z,54.20
2022-09-12T03:51:49.679Z,54.20
2022-09-12T03:54:23.317Z,54.50
2022-09-12T03:56:58.675Z,54.40
2022-09-12T03:59:32.655Z,54.40
2022-09-12T04:02:06.779Z,54.50
2022-09-12T04:04:42.827Z,54.50
2022-09-12T04:07:17.343Z,54.60
2022-09-12T04:09:51.216Z,54.60
2022-09-12T04:12:26.178Z,54.50
2022-09-12T04:14:59.987Z,54.60
2022-09-12T04:17:34.848Z,54.60
2022-09-12T04:20:09.301Z,54.60
2022-09-12T04:22:43.184Z,54.70
2022-09-12T04:25:17.429Z,54.70
2022-09-12T04:27:52.669Z,54.70
2022-09-12T04:30:26.586Z,54.70
2022-09-12T04:33:02.202Z,54.80
2022-09-12T04:35:37.841Z,54.90
2022-09-12T04:38:11.691Z,54.80
2022-09-12T04:40:45.215Z,54.90
2022-09-12T04:43:20.448Z,54.80
2022-09-12T04:45:54.353Z,54.80
2022-09-12T04:48:27.939Z,54.80
2022-09-12T04:51:08.688Z,54.70
2022-09-12T04:53:42.970Z,54.70
2022-09-12T04:56:16.900Z,54.70
2022-09-12T04:58:52.360Z,54.60
2022-09-12T05:01:26.426Z,54.60
2022-09-12T05:04:00.614Z,54.70
2022-09-12T05:06:36.941Z,54.90
2022-09-12T05:09:14.257Z,55.50
2022-09-12T05:12:05.019Z,55.40
2022-09-12T05:14:40.779Z,55.50
2022-09-12T05:17:14.660Z,55.50
2022-09-12T05:19:50.045Z,55.50
2022-09-12T05:22:23.952Z,55.60
2022-09-12T05:24:57.486Z,55.70
2022-09-12T05:27:31.457Z,55.80
2022-09-12T05:30:08.262Z,55.70
2022-09-12T05:32:42.135Z,55.80
2022-09-12T05:35:16.321Z,56.00
2022-09-12T05:37:50.156Z,56.20
2022-09-12T05:40:23.799Z,56.30
2022-09-12T05:42:57.831Z,56.20
2022-09-12T05:45:33.418Z,56.20
2022-09-12T05:48:07.302Z,56.10
2022-09-12T05:50:42.627Z,56.20
2022-09-12T05:53:16.457Z,56.30
2022-09-12T05:55:50.603Z,56.20
2022-09-12T05:58:24.498Z,56.30
2022-09-12T06:01:02.491Z,56.30
2022-09-12T06:03:37.363Z,56.40
2022-09-12T06:06:13.822Z,56.40
2022-09-12T06:08:49.440Z,56.50
2022-09-12T06:11:25.001Z,56.50
2022-09-12T06:14:00.193Z,56.50
2022-09-12T06:16:37.364Z,56.40
2022-09-12T06:19:16.199Z,56.30
2022-09-12T06:21:53.395Z,56.30
2022-09-12T06:24:27.568Z,56.40
2022-09-12T06:27:02.531Z,56.50
2022-09-12T06:29:36.359Z,56.50
2022-09-12T06:32:11.855Z,56.30
2022-09-12T06:34:47.825Z,56.30
2022-09-12T06:37:21.662Z,56.20
2022-09-12T06:39:56.071Z,56.20
2022-09-12T06:42:29.840Z,56.30
2022-09-12T06:45:04.179Z,56.30
2022-09-12T06:47:39.573Z,56.10
2022-09-12T06:50:13.545Z,56.00
2022-09-12T06:52:50.008Z,56.00
2022-09-12T06:55:27.635Z,55.90
2022-09-12T06:58:01.813Z,55.80
2022-09-12T07:00:35.680Z,55.70
2022-09-12T07:03:11.255Z,55.60
2022-09-12T07:05:45.461Z,55.50
2022-09-12T07:08:19.384Z,55.50
2022-09-12T07:10:52.973Z,55.40
2022-09-12T07:13:26.850Z,55.40
2022-09-12T07:16:03.731Z,55.20
2022-09-12T07:18:40.019Z,54.80
2022-09-12T07:21:15.433Z,54.30
2022-09-12T07:23:51.980Z,54.00
2022-09-12T07:26:26.877Z,53.60
2022-09-12T07:29:19.068Z,53.20
2022-09-12T07:31:54.932Z,52.80
2022-09-12T07:34:30.838Z,52.10
2022-09-12T07:37:05.307Z,51.70
2022-09-12T07:39:39.248Z,51.70
2022-09-12T07:42:13.452Z,51.50
2022-09-12T07:44:47.651Z,51.30
2022-09-12T07:47:21.696Z,51.10
2022-09-12T07:49:57.188Z,50.90
2022-09-12T07:52:31.459Z,50.70
2022-09-12T07:55:05.809Z,50.50
2022-09-12T07:57:40.012Z,50.40
2022-09-12T08:00:14.948Z,50.40
2022-09-12T08:02:53.501Z,50.20
2022-09-12T08:05:30.128Z,50.10
2022-09-12T08:08:04.415Z,50.20
2022-09-12T08:10:38.542Z,50.20
2022-09-12T08:13:12.454Z,50.30
2022-09-12T08:15:46.430Z,50.30
2022-09-12T08:18:20.326Z,50.40
2022-09-12T08:20:59.274Z,50.40
2022-09-12T08:23:33.414Z,50.30
2022-09-12T08:26:08.443Z,50.10
2022-09-12T08:28:46.345Z,50.00
2022-09-12T08:31:22.367Z,50.10
2022-09-12T08:33:57.803Z,50.10
2022-09-12T08:36:34.289Z,50.00
2022-09-12T08:39:09.328Z,50.40
2022-09-12T08:41:45.289Z,50.60
2022-09-12T08:44:39.883Z,50.70
2022-09-12T08:47:23.330Z,50.80
2022-09-12T08:50:06.726Z,50.80
2022-09-12T08:52:51.620Z,50.70
2022-09-12T08:55:33.361Z,50.80
2022-09-12T08:58:14.829Z,50.50
2022-09-12T09:00:56.158Z,50.50
2022-09-12T09:03:59.898Z,50.60
2022-09-12T09:07:03.971Z,50.40
2022-09-12T09:09:49.791Z,50.30
2022-09-12T09:12:31.773Z,50.10
2022-09-12T09:15:23.854Z,50.20
2022-09-12T09:18:04.567Z,50.10
2022-09-12T09:20:45.747Z,50.30
2022-09-12T09:23:27.064Z,50.20
2022-09-12T09:26:08.464Z,50.20
2022-09-12T09:28:46.641Z,50.10
2022-09-12T09:31:22.670Z,49.20
2022-09-12T09:33:56.902Z,47.00
2022-09-12T09:36:41.066Z,45.90
2022-09-12T09:39:37.115Z,44.40
2022-09-12T09:42:25.947Z,44.00
2022-09-12T09:45:04.485Z,43.80
2022-09-12T09:47:38.592Z,44.60
2022-09-12T09:50:17.834Z,45.30
2022-09-12T09:52:53.204Z,45.60
2022-09-12T09:55:32.226Z,46.20
2022-09-12T09:58:07.512Z,46.30
2022-09-12T10:00:42.258Z,46.40
2022-09-12T10:03:32.423Z,46.50
2022-09-12T10:06:23.407Z,46.70
2022-09-12T10:09:09.179Z,46.90
2022-09-12T10:11:45.943Z,46.90
2022-09-12T10:14:38.073Z,47.10
2022-09-12T10:17:33.790Z,47.20
2022-09-12T10:20:31.261Z,47.90
2022-09-12T10:23:21.565Z,47.90
2022-09-12T10:25:58.917Z,47.50
2022-09-12T10:28:37.517Z,47.60
2022-09-12T10:31:29.624Z,47.70
2022-09-12T10:34:03.563Z,47.70
2022-09-12T10:36:39.099Z,47.80
2022-09-12T10:39:19.506Z,47.90
2022-09-12T10:41:53.340Z,48.00
2022-09-12T10:44:28.551Z,48.00
2022-09-12T10:47:21.611Z,48.10
2022-09-12T10:50:22.935Z,48.30
2022-09-12T10:53:14.008Z,48.50
2022-09-12T10:56:06.852Z,49.00
2022-09-12T10:59:08.816Z,49.20
2022-09-12T11:01:46.720Z,49.30
2022-09-12T11:04:38.289Z,49.40
2022-09-12T11:07:37.004Z,49.60
2022-09-12T11:10:36.309Z,49.90
2022-09-12T11:13:25.824Z,49.90
2022-09-12T11:16:10.283Z,50.00
2022-09-12T11:19:17.203Z,50.10
2022-09-12T11:22:09.128Z,50.10
2022-09-12T11:24:55.474Z,50.10
2022-09-12T11:27:49.523Z,50.10
2022-09-12T11:30:23.864Z,50.20
2022-09-12T11:33:08.734Z,50.30
2022-09-12T11:35:53.053Z,50.30
2022-09-12T11:38:52.218Z,50.20
2022-09-12T11:41:31.655Z,50.20
2022-09-12T11:44:16.138Z,50.70
2022-09-12T11:46:52.052Z,50.30
2022-09-12T11:49:35.730Z,50.30
2022-09-12T11:52:16.796Z,50.10
2022-09-12T11:54:59.167Z,50.20
2022-09-12T11:57:40.762Z,50.10
2022-09-12T12:00:19.661Z,50.10
2022-09-12T12:03:04.408Z,50.10
2022-09-12T12:05:44.386Z,50.10
2022-09-12T12:08:18.787Z,50.00
2022-09-12T12:10:57.455Z,50.00
2022-09-12T12:13:34.653Z,50.10
2022-09-12T12:16:13.265Z,50.20
2022-09-12T12:18:47.675Z,50.00
2022-09-12T12:21:36.641Z,50.20
2022-09-12T12:24:20.400Z,50.30
2022-09-12T12:27:01.238Z,50.50
2022-09-12T12:29:45.979Z,50.70
2022-09-12T12:32:27.003Z,50.90
2022-09-12T12:35:38.880Z,50.90
2022-09-12T12:38:29.395Z,50.90
2022-09-12T12:41:40.587Z,50.60
2022-09-12T12:44:50.498Z,50.50
2022-09-12T12:47:27.728Z,50.80
2022-09-12T12:50:03.932Z,50.90
2022-09-12T12:52:50.070Z,50.70
2022-09-12T12:55:27.470Z,51.10
2022-09-12T12:58:02.559Z,50.90
2022-09-12T13:00:40.049Z,51.00
2022-09-12T13:03:29.025Z,50.90
2022-09-12T13:06:04.541Z,50.70
2022-09-12T13:08:44.827Z,50.50
2022-09-12T13:11:30.979Z,50.40
2022-09-12T13:14:07.178Z,50.30
2022-09-12T13:16:55.275Z,50.20
2022-09-12T13:19:32.798Z,50.10
2022-09-12T13:22:08.400Z,50.00
2022-09-12T13:24:44.873Z,50.00
2022-09-12T13:27:21.475Z,50.00
2022-09-12T13:30:08.720Z,50.00
2022-09-12T13:32:45.013Z,50.00
2022-09-12T13:35:27.694Z,49.90
2022-09-12T13:38:10.025Z,49.90
2022-09-12T13:40:58.747Z,49.80
2022-09-12T13:43:40.788Z,49.90
2022-09-12T13:46:19.606Z,49.80
2022-09-12T13:48:55.234Z,49.80
2022-09-12T13:51:32.256Z,50.00
2022-09-12T13:54:07.559Z,50.60
2022-09-12T13:56:49.874Z,51.00
2022-09-12T13:59:23.824Z,51.50
2022-09-12T14:01:57.706Z,51.50
2022-09-12T14:04:49.898Z,51.80
2022-09-12T14:07:26.580Z,52.00
2022-09-12T14:10:02.219Z,52.00
2022-09-12T14:12:44.045Z,53.40
2022-09-12T14:15:23.724Z,53.50
2022-09-12T14:17:59.847Z,53.40
2022-09-12T14:20:39.994Z,53.20
2022-09-12T14:23:22.697Z,52.70
2022-09-12T14:25:58.798Z,52.50
2022-09-12T14:28:36.156Z,52.30
2022-09-12T14:31:24.571Z,51.80
2022-09-12T14:34:11.144Z,51.10
2022-09-12T14:36:49.695Z,50.90
2022-09-12T14:39:29.877Z,50.60
2022-09-12T14:42:07.907Z,50.30
2022-09-12T14:44:43.601Z,50.40
2022-09-12T14:47:24.854Z,50.40
2022-09-12T14:49:59.094Z,50.30
2022-09-12T14:52:35.848Z,50.00
2022-09-12T14:55:25.162Z,49.10
2022-09-12T14:58:27.902Z,49.30
2022-09-12T15:01:03.950Z,49.40
2022-09-12T15:03:39.938Z,48.20
2022-09-12T15:06:23.812Z,47.90
2022-09-12T15:09:01.406Z,48.20
2022-09-12T15:11:35.385Z,48.10
2022-09-12T15:14:15.157Z,48.50
2022-09-12T15:16:49.232Z,48.40
2022-09-12T15:19:23.298Z,48.40
2022-09-12T15:21:57.238Z,48.20
2022-09-12T15:24:32.625Z,48.30
2022-09-12T15:27:10.711Z,48.30
2022-09-12T15:29:44.554Z,48.40
2022-09-12T15:32:24.190Z,48.00
2022-09-12T15:34:58.307Z,48.60
2022-09-12T15:37:32.437Z,48.70
2022-09-12T15:40:09.563Z,47.70
2022-09-12T15:42:43.937Z,47.80
2022-09-12T15:45:21.836Z,48.00
2022-09-12T15:47:55.970Z,47.90
2022-09-12T15:50:29.996Z,47.40
2022-09-12T15:53:04.284Z,47.40
2022-09-12T15:55:39.653Z,47.70
2022-09-12T15:58:14.198Z,47.70
2022-09-12T16:00:48.046Z,47.80
2022-09-12T16:03:27.026Z,47.50
2022-09-12T16:06:03.459Z,47.40
2022-09-12T16:08:37.657Z,47.00
2022-09-12T16:11:18.415Z,46.80
2022-09-12T16:13:53.946Z,47.10
2022-09-12T16:16:28.196Z,47.10
2022-09-12T16:19:02.555Z,47.40
2022-09-12T16:21:36.820Z,47.40
2022-09-12T16:24:10.757Z,47.70
2022-09-12T16:26:46.195Z,47.90
2022-09-12T16:29:20.674Z,48.10
2022-09-12T16:31:54.654Z,48.10
2022-09-12T16:34:28.375Z,48.20
2022-09-12T16:37:03.663Z,48.50
2022-09-12T16:39:37.847Z,48.50
2022-09-12T16:42:13.175Z,48.70
2022-09-12T16:44:47.803Z,48.60
2022-09-12T16:47:21.798Z,48.70
2022-09-12T16:49:55.705Z,48.70
2022-09-12T16:52:30.396Z,48.60
2022-09-12T16:55:04.651Z,48.70
2022-09-12T16:57:40.178Z,48.90
2022-09-12T17:00:15.725Z,48.90
2022-09-12T17:02:49.727Z,49.00
2022-09-12T17:05:24.155Z,48.90
2022-09-12T17:07:58.442Z,48.70
2022-09-12T17:10:32.911Z,48.80
2022-09-12T17:13:08.370Z,48.80
2022-09-12T17:15:42.337Z,48.70
2022-09-12T17:18:16.261Z,48.70
2022-09-12T17:20:50.925Z,48.90
2022-09-12T17:23:24.967Z,48.90
2022-09-12T17:25:59.318Z,48.70
2022-09-12T17:28:35.957Z,48.80
2022-09-12T17:31:14.690Z,48.70
2022-09-12T17:33:50.724Z,48.80
2022-09-12T17:36:26.276Z,48.80
2022-09-12T17:39:03.624Z,48.80
2022-09-12T17:41:39.419Z,48.70
2022-09-12T17:44:17.555Z,48.80
2022-09-12T17:46:53.447Z,48.80
2022-09-12T17:49:29.154Z,48.80
2022-09-12T17:52:04.649Z,48.70
2022-09-12T17:54:40.163Z,48.80
2022-09-12T17:57:15.694Z,48.70
2022-09-12T17:59:53.523Z,48.70
2022-09-12T18:02:31.340Z,48.70
2022-09-12T18:05:10.958Z,48.70
2022-09-12T18:07:46.611Z,48.70
2022-09-12T18:10:22.347Z,48.60
2022-09-12T18:12:58.534Z,48.60
2022-09-12T18:15:36.216Z,48.60
2022-09-12T18:18:11.936Z,48.60
2022-09-12T18:20:53.548Z,48.70
2022-09-12T18:23:29.322Z,48.60
2022-09-12T18:26:06.372Z,48.60
2022-09-12T18:28:43.828Z,48.60
2022-09-12T18:31:22.845Z,48.70
2022-09-12T18:34:00.339Z,48.70
2022-09-12T18:36:35.641Z,48.70
2022-09-12T18:39:11.544Z,48.70
2022-09-12T18:41:46.939Z,48.70
2022-09-12T18:44:22.237Z,48.70
2022-09-12T18:46:58.753Z,48.70
2022-09-12T18:49:34.173Z,48.60
2022-09-12T18:52:10.174Z,48.60
2022-09-12T18:54:45.636Z,48.60
2022-09-12T18:57:21.141Z,48.40
2022-09-12T19:00:00.391Z,48.30
2022-09-12T19:02:37.927Z,48.40
2022-09-12T19:05:14.565Z,48.50
2022-09-12T19:07:50.172Z,48.70
2022-09-12T19:10:26.502Z,48.80
2022-09-12T19:13:02.849Z,49.00
2022-09-12T19:15:43.669Z,49.00
2022-09-12T19:18:19.918Z,49.30
2022-09-12T19:20:58.291Z,49.50
2022-09-12T19:23:34.301Z,49.60
2022-09-12T19:26:15.034Z,49.70
2022-09-12T19:28:49.803Z,49.80
2022-09-12T19:31:24.684Z,50.20
2022-09-12T19:34:03.081Z,50.40
2022-09-12T19:36:46.674Z,50.40
2022-09-12T19:39:21.027Z,50.50
2022-09-12T19:41:55.389Z,50.90
2022-09-12T19:44:31.666Z,50.80
2022-09-12T19:47:06.168Z,51.30
2022-09-12T19:49:42.014Z,51.40
2022-09-12T19:52:17.568Z,51.70
2022-09-12T19:54:52.260Z,51.70
2022-09-12T19:57:28.168Z,51.90
2022-09-12T20:00:02.485Z,51.70
2022-09-12T20:02:40.085Z,52.10
2022-09-12T20:05:15.709Z,52.30
2022-09-12T20:07:49.965Z,52.50
2022-09-12T20:10:23.917Z,52.70
2022-09-12T20:12:57.963Z,52.60
2022-09-12T20:15:32.743Z,52.90
2022-09-12T20:18:06.899Z,53.30
2022-09-12T20:20:42.540Z,53.40
2022-09-12T20:23:16.701Z,53.30
2022-09-12T20:25:51.243Z,53.50
2022-09-12T20:28:25.272Z,53.40
2022-09-12T20:31:03.088Z,53.30
2022-09-12T20:33:37.065Z,53.60
2022-09-12T20:36:13.713Z,53.60
2022-09-12T20:38:50.669Z,53.50
2022-09-12T20:41:25.150Z,53.40
2022-09-12T20:44:00.012Z,53.40
2022-09-12T20:46:34.464Z,53.40
2022-09-12T20:49:09.034Z,53.30
2022-09-12T20:51:44.469Z,53.30
2022-09-12T20:54:18.582Z,53.30
2022-09-12T20:56:53.148Z,53.20
2022-09-12T20:59:27.209Z,53.20
2022-09-12T21:02:01.373Z,53.10
2022-09-12T21:04:35.431Z,53.00
2022-09-12T21:07:11.018Z,53.00
2022-09-12T21:09:45.584Z,52.90
2022-09-12T21:12:19.549Z,52.90
2022-09-12T21:14:53.562Z,52.80
2022-09-12T21:17:27.554Z,52.70
2022-09-12T21:20:01.511Z,52.70
2022-09-12T21:22:37.014Z,52.60
2022-09-12T21:25:11.487Z,52.60
2022-09-12T21:27:45.690Z,52.60
2022-09-12T21:30:19.984Z,52.50
2022-09-12T21:32:53.972Z,52.40
2022-09-12T21:35:28.051Z,52.40
2022-09-12T21:38:03.649Z,52.30
2022-09-12T21:40:37.723Z,52.40
2022-09-12T21:43:13.032Z,52.20
2022-09-12T21:45:47.248Z,52.20
2022-09-12T21:48:21.208Z,52.20
2022-09-12T21:50:55.701Z,52.10
2022-09-12T21:53:31.282Z,52.10
2022-09-12T21:56:07.292Z,52.10
2022-09-12T21:58:41.477Z,52.00
2022-09-12T22:01:18.653Z,52.00
2022-09-12T22:03:53.193Z,52.00
2022-09-12T22:06:27.446Z,52.00
2022-09-12T22:09:03.450Z,51.90
2022-09-12T22:11:37.995Z,51.90
2022-09-12T22:14:12.445Z,51.90
2022-09-12T22:16:46.777Z,52.00
2022-09-12T22:19:21.241Z,51.90
2022-09-12T22:22:12.607Z,51.90
2022-09-12T22:24:48.487Z,51.90
2022-09-12T22:27:22.901Z,51.80
2022-09-12T22:29:57.365Z,52.50
2022-09-12T22:32:31.548Z,52.90
2022-09-12T22:35:07.012Z,53.20
2022-09-12T22:37:41.333Z,53.40
2022-09-12T22:40:17.404Z,53.50
2022-09-12T22:42:53.848Z,53.40
2022-09-12T22:45:28.185Z,53.30
2022-09-12T22:48:05.100Z,53.20
2022-09-12T22:50:43.488Z,53.20
2022-09-12T22:53:17.712Z,53.20
2022-09-12T22:55:53.927Z,53.20
2022-09-12T22:58:28.118Z,53.20
2022-09-12T23:01:02.437Z,53.10
2022-09-12T23:03:37.238Z,53.10
2022-09-12T23:06:12.442Z,53.10
2022-09-12T23:08:47.035Z,53.10
2022-09-12T23:11:22.927Z,53.10
2022-09-12T23:13:57.409Z,53.10
2022-09-12T23:16:32.572Z,53.10
2022-09-12T23:19:07.141Z,53.20
2022-09-12T23:21:41.557Z,53.10
2022-09-12T23:24:16.030Z,53.10
2022-09-12T23:26:51.966Z,53.00
2022-09-12T23:29:26.558Z,53.10
2022-09-12T23:32:01.055Z,53.10
2022-09-12T23:34:35.426Z,53.10
2022-09-12T23:37:09.747Z,53.00
2022-09-12T23:39:44.362Z,53.00
2022-09-12T23:42:20.123Z,53.00
2022-09-12T23:44:54.451Z,53.00
2022-09-12T23:47:28.971Z,53.10
2022-09-12T23:50:03.237Z,53.00
2022-09-12T23:52:37.479Z,53.00
2022-09-12T23:55:11.846Z,53.00
2022-09-12T23:57:47.522Z,52.90
